Time;durP1;ratioP1;P1;durP2;ratioP2;P2;SDS_P1;SDS_P2;PMS_P1;PMS_P2;Temp;Humidity;BMP_temperature;BMP_pressure;BME280_temperature;BME280_humidity;BME280_pressure;Samples;Min_cycle;Max_cycle;Signal;HPM_P1;HPM_P2
2023/09/12 00:00:07;;;;;;;3.90;3.17;;;24.00;98.90;;;;;;5072915;28;45130;-57
2023/09/12 00:02:34;;;;;;;3.08;2.78;;;23.90;98.90;;;;;;5081492;28;45288;-57
2023/09/12 00:05:02;;;;;;;4.22;3.30;;;23.90;98.90;;;;;;5077110;28;45117;-57
2023/09/12 00:07:29;;;;;;;4.30;3.30;;;24.00;98.90;;;;;;5085787;28;45063;-57
2023/09/12 00:09:56;;;;;;;5.50;3.17;;;24.00;98.90;;;;;;5085104;28;45049;-57
2023/09/12 00:12:24;;;;;;;4.30;3.25;;;23.90;98.80;;;;;;5080330;28;45125;-57
2023/09/12 00:14:51;;;;;;;4.47;3.75;;;23.90;98.80;;;;;;5076381;28;45115;-57
2023/09/12 00:17:18;;;;;;;4.45;3.60;;;23.90;98.70;;;;;;5084551;27;44924;-57
2023/09/12 00:19:44;;;;;;;6.43;3.60;;;23.90;98.70;;;;;;5075071;28;45348;-57
2023/09/12 00:22:12;;;;;;;4.78;3.45;;;23.90;98.70;;;;;;5078400;28;45250;-57
2023/09/12 00:24:39;;;;;;;4.72;3.42;;;23.90;98.70;;;;;;5067056;28;45420;-57
2023/09/12 00:27:07;;;;;;;5.32;3.53;;;24.00;98.70;;;;;;5076061;28;45148;-57
2023/09/12 00:29:34;;;;;;;7.22;3.50;;;23.90;98.60;;;;;;5082376;28;45406;-57
2023/09/12 00:32:00;;;;;;;5.60;3.70;;;24.00;98.60;;;;;;5077976;28;46387;-57
2023/09/12 00:34:27;;;;;;;4.88;3.88;;;23.90;98.60;;;;;;5075832;27;44638;-57
2023/09/12 00:36:54;;;;;;;4.35;3.58;;;23.90;98.60;;;;;;5077258;28;45327;-57
2023/09/12 00:39:22;;;;;;;3.95;3.20;;;23.90;98.60;;;;;;5081217;28;45096;-57
2023/09/12 00:41:49;;;;;;;5.03;3.63;;;23.90;98.60;;;;;;5080594;28;46237;-57
2023/09/12 00:44:15;;;;;;;5.10;3.50;;;23.90;98.60;;;;;;5072625;28;45157;-57
2023/09/12 00:46:44;;;;;;;4.32;3.42;;;23.90;98.60;;;;;;5070849;28;45194;-57
2023/09/12 00:49:13;;;;;;;5.68;3.70;;;23.90;98.70;;;;;;5082565;28;45294;-57
2023/09/12 00:51:40;;;;;;;4.72;3.55;;;23.90;98.70;;;;;;5082693;28;45387;-57
2023/09/12 00:54:07;;;;;;;7.35;3.65;;;23.90;98.70;;;;;;5077742;28;45053;-57
2023/09/12 00:56:35;;;;;;;4.63;3.47;;;23.90;98.70;;;;;;5073391;28;45251;-57
2023/09/12 00:59:03;;;;;;;5.13;3.53;;;23.90;98.70;;;;;;5071602;28;45252;-57
2023/09/12 01:01:32;;;;;;;4.20;3.45;;;23.90;98.70;;;;;;5068206;28;45257;-57
2023/09/12 01:03:59;;;;;;;6.57;3.55;;;23.90;98.70;;;;;;5083526;28;45428;-57
2023/09/12 01:06:28;;;;;;;6.13;4.03;;;23.90;98.70;;;;;;5084154;27;45191;-57
2023/09/12 01:08:56;;;;;;;5.55;3.67;;;23.90;98.70;;;;;;5075887;28;44930;-57
2023/09/12 01:11:23;;;;;;;5.57;3.78;;;23.90;98.70;;;;;;5075019;28;45216;-57
2023/09/12 01:13:51;;;;;;;4.93;3.67;;;23.90;98.70;;;;;;5068548;28;45094;-57
2023/09/12 01:16:18;;;;;;;5.40;3.85;;;23.90;98.70;;;;;;5072835;27;45193;-57
2023/09/12 01:18:46;;;;;;;5.10;3.75;;;23.90;98.70;;;;;;5083022;28;45178;-57
2023/09/12 01:21:47;;;;;;;5.20;3.85;;;23.90;98.70;;;;;;5070680;28;45147;-57
2023/09/12 01:24:39;;;;;;;6.00;3.95;;;23.90;98.70;;;;;;5045213;28;45118;-57
2023/09/12 01:27:21;;;;;;;5.07;3.92;;;23.90;98.70;;;;;;5076466;28;45106;-57
2023/09/12 01:29:52;;;;;;;5.25;3.97;;;23.90;98.70;;;;;;5074533;28;45098;-57
2023/09/12 01:32:20;;;;;;;5.30;3.90;;;23.90;98.70;;;;;;5074890;28;46288;-57
2023/09/12 01:34:47;;;;;;;5.03;4.07;;;23.90;98.80;;;;;;5077831;28;45125;-57
2023/09/12 01:37:14;;;;;;;6.43;3.95;;;23.90;99.20;;;;;;5078516;28;45097;-57
2023/09/12 01:39:41;;;;;;;5.47;3.85;;;23.90;98.80;;;;;;5084158;27;45138;-57
2023/09/12 01:42:11;;;;;;;6.70;4.72;;;23.90;98.80;;;;;;5080713;27;45175;-57
2023/09/12 01:44:40;;;;;;;7.05;4.50;;;23.90;98.80;;;;;;5067572;28;45173;-57
2023/09/12 01:47:07;;;;;;;6.35;4.53;;;23.90;98.80;;;;;;5083701;28;44675;-57
2023/09/12 01:49:34;;;;;;;6.47;4.63;;;23.90;98.80;;;;;;5080069;28;45212;-57
2023/09/12 01:52:02;;;;;;;6.40;4.55;;;23.90;98.80;;;;;;5072474;28;45256;-57
2023/09/12 01:54:30;;;;;;;10.07;4.82;;;23.90;98.90;;;;;;5069619;28;45056;-57
2023/09/12 01:56:58;;;;;;;7.15;4.65;;;23.90;98.90;;;;;;5071365;28;45188;-57
2023/09/12 01:59:25;;;;;;;8.23;5.10;;;23.90;98.90;;;;;;5078938;28;45180;-57
2023/09/12 02:01:53;;;;;;;6.90;4.63;;;23.90;98.90;;;;;;5080168;28;46036;-57
2023/09/12 02:04:20;;;;;;;7.90;4.82;;;23.90;98.90;;;;;;5071163;28;45091;-57
2023/09/12 02:06:47;;;;;;;9.05;5.32;;;23.90;98.90;;;;;;5071865;28;45138;-57
2023/09/12 02:09:14;;;;;;;6.80;4.85;;;23.90;98.90;;;;;;5075466;27;45312;-57
2023/09/12 02:11:40;;;;;;;6.90;4.85;;;23.90;98.90;;;;;;5078598;27;48261;-57
2023/09/12 02:14:07;;;;;;;7.25;4.90;;;23.90;98.90;;;;;;5069567;28;45230;-57
2023/09/12 02:16:38;;;;;;;6.07;4.60;;;23.90;98.90;;;;;;5072271;27;45206;-57
2023/09/12 02:19:06;;;;;;;9.27;5.07;;;23.90;98.90;;;;;;5084103;28;45162;-57
2023/09/12 02:21:33;;;;;;;7.63;5.07;;;23.90;98.90;;;;;;5072167;27;45297;-57
2023/09/12 02:23:59;;;;;;;6.32;4.65;;;23.90;98.90;;;;;;5070836;28;45302;-57
2023/09/12 02:26:26;;;;;;;7.75;4.85;;;23.90;99.00;;;;;;5077632;28;45466;-57
2023/09/12 02:28:53;;;;;;;7.05;4.82;;;23.90;98.90;;;;;;5071278;28;45202;-57
2023/09/12 02:31:20;;;;;;;6.45;5.20;;;23.90;98.90;;;;;;5069476;28;45278;-57
2023/09/12 02:33:47;;;;;;;8.43;5.38;;;23.90;98.90;;;;;;5070681;28;45107;-57
2023/09/12 02:36:16;;;;;;;8.73;5.78;;;23.90;98.90;;;;;;5064932;28;45303;-57
2023/09/12 02:38:42;;;;;;;6.75;5.00;;;23.90;98.90;;;;;;5078893;27;45106;-57
2023/09/12 02:41:09;;;;;;;8.40;5.75;;;23.90;98.90;;;;;;5064847;28;47140;-57
2023/09/12 02:43:36;;;;;;;7.57;5.50;;;23.90;98.90;;;;;;5080196;28;45200;-57
2023/09/12 02:46:03;;;;;;;6.90;4.65;;;23.90;98.90;;;;;;5074651;28;45176;-57
2023/09/12 02:48:29;;;;;;;6.50;4.55;;;23.90;98.90;;;;;;5082859;28;45469;-57
2023/09/12 02:50:56;;;;;;;8.05;5.10;;;23.90;98.90;;;;;;5063536;28;45222;-57
2023/09/12 02:53:24;;;;;;;6.15;4.55;;;23.90;99.00;;;;;;5069835;28;45430;-57
2023/09/12 02:55:54;;;;;;;6.95;5.13;;;23.90;99.00;;;;;;5079812;28;45051;-57
2023/09/12 02:58:20;;;;;;;8.02;5.28;;;23.90;99.00;;;;;;5075897;27;45114;-57
2023/09/12 03:00:50;;;;;;;8.55;5.60;;;23.90;99.00;;;;;;5074681;28;46305;-57
2023/09/12 03:03:16;;;;;;;7.93;5.30;;;23.90;99.00;;;;;;5075896;28;45362;-57
2023/09/12 03:05:43;;;;;;;7.93;4.93;;;23.90;99.00;;;;;;5070149;28;45194;-57
2023/09/12 03:08:10;;;;;;;7.10;5.07;;;23.90;99.00;;;;;;5074848;28;45236;-57
2023/09/12 03:10:38;;;;;;;7.22;5.07;;;23.90;99.00;;;;;;5081631;28;45435;-57
2023/09/12 03:13:05;;;;;;;7.22;5.10;;;23.90;99.00;;;;;;5076138;28;45059;-57
2023/09/12 03:15:37;;;;;;;7.22;5.13;;;23.90;99.00;;;;;;5071734;28;45063;-57
2023/09/12 03:18:04;;;;;;;7.03;4.57;;;23.90;99.00;;;;;;5079091;27;45075;-57
2023/09/12 03:20:31;;;;;;;6.25;4.70;;;23.90;99.00;;;;;;5073408;27;47243;-57
2023/09/12 03:22:57;;;;;;;8.38;5.05;;;23.90;99.00;;;;;;5075434;28;45177;-57
2023/09/12 03:25:24;;;;;;;9.32;4.95;;;23.90;99.00;;;;;;5080373;28;45216;-57
2023/09/12 03:27:52;;;;;;;7.03;4.88;;;23.90;99.00;;;;;;5081990;28;45090;-57
2023/09/12 03:30:21;;;;;;;7.60;4.88;;;23.90;99.00;;;;;;5065395;28;45201;-57
2023/09/12 03:32:48;;;;;;;6.45;4.50;;;23.90;99.00;;;;;;5074597;28;45064;-57
2023/09/12 03:35:15;;;;;;;8.95;5.57;;;23.90;99.00;;;;;;5071073;28;45192;-57
2023/09/12 03:37:42;;;;;;;6.00;4.55;;;23.90;99.00;;;;;;5075640;27;45185;-57
2023/09/12 03:40:11;;;;;;;7.63;4.63;;;23.90;99.00;;;;;;5073016;28;45432;-57
2023/09/12 03:42:38;;;;;;;6.57;4.45;;;23.90;99.00;;;;;;5080004;28;44714;-57
2023/09/12 03:45:07;;;;;;;7.60;5.13;;;23.90;99.00;;;;;;5077831;28;45192;-57
2023/09/12 03:47:34;;;;;;;6.65;4.60;;;23.90;98.90;;;;;;5079636;28;45230;-57
2023/09/12 03:50:02;;;;;;;6.32;4.60;;;23.90;98.90;;;;;;5066325;28;46377;-57
2023/09/12 03:52:28;;;;;;;10.18;5.25;;;23.90;98.90;;;;;;5072038;28;45152;-57
2023/09/12 03:54:55;;;;;;;6.70;5.00;;;23.90;98.90;;;;;;5076236;28;45147;-57
2023/09/12 03:57:22;;;;;;;7.00;4.82;;;23.90;98.90;;;;;;5069667;28;45085;-57
2023/09/12 03:59:51;;;;;;;7.07;4.53;;;23.90;98.90;;;;;;5071237;28;45467;-57
2023/09/12 04:02:19;;;;;;;9.75;4.97;;;23.90;98.90;;;;;;5079302;28;45944;-57
2023/09/12 04:04:46;;;;;;;7.82;4.70;;;23.90;99.00;;;;;;5077147;28;45098;-57
2023/09/12 04:07:12;;;;;;;6.25;4.38;;;23.90;98.90;;;;;;5080038;28;45233;-57
2023/09/12 04:09:39;;;;;;;6.72;4.97;;;23.90;99.00;;;;;;5083219;28;47284;-57
2023/09/12 04:12:08;;;;;;;7.55;4.72;;;23.90;98.90;;;;;;5075084;28;45092;-57
2023/09/12 04:14:35;;;;;;;7.57;4.97;;;23.90;99.00;;;;;;5080205;28;45049;-56
2023/09/12 04:17:02;;;;;;;10.07;4.97;;;23.90;99.00;;;;;;5076067;27;45099;-56
2023/09/12 04:19:31;;;;;;;6.70;4.93;;;23.80;98.90;;;;;;5083946;28;45457;-57
2023/09/12 04:21:59;;;;;;;7.70;4.28;;;23.80;99.00;;;;;;5080569;28;45198;-58
2023/09/12 04:24:26;;;;;;;7.10;4.65;;;23.90;99.00;;;;;;5067964;28;45186;-57
2023/09/12 04:26:54;;;;;;;7.57;4.70;;;23.80;99.00;;;;;;5080609;28;45229;-58
2023/09/12 04:29:21;;;;;;;7.15;4.78;;;23.90;99.00;;;;;;5072274;28;47292;-58
2023/09/12 04:31:48;;;;;;;7.45;4.90;;;23.90;99.00;;;;;;5075432;28;45067;-58
2023/09/12 04:34:14;;;;;;;5.82;4.32;;;23.90;99.00;;;;;;5081145;28;45097;-57
2023/09/12 04:36:42;;;;;;;5.75;4.43;;;23.90;99.00;;;;;;5079470;27;45174;-58
2023/09/12 04:39:10;;;;;;;6.38;4.13;;;23.90;99.00;;;;;;5070204;28;46475;-58
2023/09/12 04:41:37;;;;;;;5.68;4.68;;;23.90;99.00;;;;;;5072531;28;45160;-57
2023/09/12 04:44:04;;;;;;;7.03;4.40;;;23.90;98.90;;;;;;5078882;28;45195;-58
2023/09/12 04:46:31;;;;;;;6.72;4.57;;;23.90;98.90;;;;;;5078808;28;45408;-57
2023/09/12 04:48:58;;;;;;;6.50;4.93;;;23.90;98.90;;;;;;5078188;28;45490;-58
2023/09/12 04:51:24;;;;;;;7.53;5.03;;;23.90;98.90;;;;;;5075250;28;45225;-58
2023/09/12 04:53:52;;;;;;;8.48;5.65;;;23.90;98.90;;;;;;5077836;28;45205;-57
2023/09/12 04:56:19;;;;;;;7.07;4.95;;;23.90;98.90;;;;;;5077731;28;45117;-57
2023/09/12 04:58:46;;;;;;;7.32;4.70;;;23.90;98.90;;;;;;5076265;28;46212;-57
2023/09/12 05:01:13;;;;;;;6.97;4.78;;;23.90;98.90;;;;;;5077716;28;45306;-55
2023/09/12 05:03:40;;;;;;;8.30;5.10;;;23.90;98.90;;;;;;5080905;27;45078;-56
2023/09/12 05:06:06;;;;;;;9.32;5.68;;;23.80;99.00;;;;;;5078881;28;44697;-57
2023/09/12 05:08:33;;;;;;;9.55;6.07;;;23.90;99.20;;;;;;5082627;28;46359;-57
2023/09/12 05:11:02;;;;;;;10.43;6.57;;;23.90;99.40;;;;;;5083438;27;45173;-57
2023/09/12 05:13:29;;;;;;;11.85;6.90;;;23.80;99.20;;;;;;5080432;28;45157;-58
2023/09/12 05:15:56;;;;;;;10.88;6.95;;;23.80;98.80;;;;;;5079612;28;45306;-58
2023/09/12 05:18:23;;;;;;;10.40;7.10;;;23.80;98.50;;;;;;5075339;28;46323;-58
2023/09/12 05:20:50;;;;;;;13.35;7.38;;;23.80;98.30;;;;;;5072460;28;45058;-58
2023/09/12 05:23:17;;;;;;;13.55;8.23;;;23.70;98.20;;;;;;5076434;27;45261;-55
2023/09/12 05:25:44;;;;;;;11.93;7.68;;;23.70;98.20;;;;;;5067009;28;45145;-55
2023/09/12 05:28:15;;;;;;;11.75;7.90;;;23.70;98.20;;;;;;5085251;28;45277;-55
2023/09/12 05:30:42;;;;;;;11.63;7.43;;;23.70;98.20;;;;;;5068930;28;45280;-55
2023/09/12 05:33:09;;;;;;;14.10;8.27;;;23.70;98.20;;;;;;5075729;28;45204;-56
2023/09/12 05:35:36;;;;;;;11.60;7.32;;;23.70;98.20;;;;;;5079372;28;45134;-55
2023/09/12 05:38:03;;;;;;;11.88;7.68;;;23.70;98.20;;;;;;5069336;28;47508;-56
2023/09/12 05:40:30;;;;;;;10.65;7.10;;;23.70;98.10;;;;;;5068709;28;45457;-56
2023/09/12 05:42:57;;;;;;;12.35;7.93;;;23.80;98.30;;;;;;5073896;28;44964;-57
2023/09/12 05:45:25;;;;;;;9.30;6.72;;;23.70;98.10;;;;;;5074807;27;44732;-58
2023/09/12 05:47:52;;;;;;;11.07;6.45;;;23.80;98.30;;;;;;5075481;28;46260;-58
2023/09/12 05:50:19;;;;;;;12.15;6.07;;;23.70;98.40;;;;;;5081427;27;45322;-58
2023/09/12 05:52:45;;;;;;;8.77;5.80;;;23.80;98.40;;;;;;5081927;27;44662;-58
2023/09/12 05:55:12;;;;;;;9.52;5.93;;;23.80;98.40;;;;;;5069641;27;45372;-58
2023/09/12 05:57:39;;;;;;;7.47;5.28;;;23.80;98.30;;;;;;5068029;28;45172;-56
2023/09/12 06:00:10;;;;;;;10.10;5.70;;;23.80;98.40;;;;;;5077320;28;45134;-56
2023/09/12 06:02:38;;;;;;;7.80;5.25;;;23.80;98.40;;;;;;5076430;28;45266;-57
2023/09/12 06:05:06;;;;;;;8.25;5.05;;;23.80;98.50;;;;;;5075730;27;45344;-57
2023/09/12 06:07:33;;;;;;;9.63;5.35;;;23.80;98.70;;;;;;5083594;28;46274;-58
2023/09/12 06:09:59;;;;;;;8.73;4.90;;;23.80;98.70;;;;;;5079719;28;45163;-58
2023/09/12 06:12:26;;;;;;;6.63;4.80;;;23.80;98.70;;;;;;5083413;28;45287;-58
2023/09/12 06:14:55;;;;;;;10.05;5.13;;;23.80;98.80;;;;;;5071813;28;44846;-58
2023/09/12 06:17:21;;;;;;;9.15;4.50;;;23.80;98.90;;;;;;5071350;27;46352;-58
2023/09/12 06:19:50;;;;;;;8.02;4.63;;;23.80;99.00;;;;;;5080915;28;45098;-58
2023/09/12 06:22:18;;;;;;;6.40;3.97;;;23.80;99.20;;;;;;5083557;28;44604;-58
2023/09/12 06:24:45;;;;;;;7.60;4.50;;;23.80;99.40;;;;;;5073701;28;45312;-57
2023/09/12 06:27:12;;;;;;;5.28;3.47;;;23.80;99.50;;;;;;5075814;28;45365;-58
2023/09/12 06:29:39;;;;;;;5.40;3.72;;;23.80;99.60;;;;;;5077960;28;45357;-58
2023/09/12 06:32:06;;;;;;;6.35;3.92;;;23.80;99.80;;;;;;5070140;28;45024;-58
2023/09/12 06:34:33;;;;;;;4.90;3.30;;;23.80;99.90;;;;;;5063476;28;45456;-57
2023/09/12 06:37:01;;;;;;;6.43;3.75;;;23.80;99.90;;;;;;5068859;28;47208;-57
2023/09/12 06:39:28;;;;;;;5.75;3.67;;;23.80;99.80;;;;;;5081276;28;45195;-57
2023/09/12 06:41:54;;;;;;;6.13;3.65;;;23.80;99.80;;;;;;5080909;28;45112;-57
2023/09/12 06:44:21;;;;;;;3.78;3.17;;;23.80;99.80;;;;;;5082146;27;45201;-57
2023/09/12 06:46:48;;;;;;;5.63;3.45;;;23.80;99.80;;;;;;5074430;28;47089;-57
2023/09/12 06:49:15;;;;;;;5.32;3.60;;;23.80;99.90;;;;;;5072442;28;45404;-57
2023/09/12 06:51:42;;;;;;;5.50;3.40;;;23.80;99.90;;;;;;5064720;28;45095;-57
2023/09/12 06:54:10;;;;;;;6.25;3.75;;;23.80;99.90;;;;;;5069767;27;45072;-57
2023/09/12 06:56:37;;;;;;;3.88;3.17;;;23.80;99.90;;;;;;5082921;27;47285;-57
2023/09/12 06:59:04;;;;;;;5.80;2.95;;;23.80;99.90;;;;;;5087673;28;45533;-57
2023/09/12 07:01:31;;;;;;;4.68;3.28;;;23.80;99.90;;;;;;5077195;27;44635;-57
2023/09/12 07:03:58;;;;;;;3.60;3.08;;;23.80;99.90;;;;;;5081871;28;45103;-57
2023/09/12 07:06:25;;;;;;;4.88;3.22;;;23.80;99.90;;;;;;5070650;28;45217;-57
2023/09/12 07:08:52;;;;;;;4.32;3.35;;;23.80;99.90;;;;;;5077990;28;44910;-57
2023/09/12 07:11:20;;;;;;;5.00;3.20;;;23.80;99.90;;;;;;5086978;28;45234;-57
2023/09/12 07:13:47;;;;;;;5.22;2.85;;;23.80;99.90;;;;;;5077057;28;45304;-57
2023/09/12 07:16:14;;;;;;;3.95;2.97;;;23.80;99.90;;;;;;5074680;27;48035;-57
2023/09/12 07:18:41;;;;;;;4.53;3.25;;;23.80;99.90;;;;;;5082041;28;46047;-57
2023/09/12 07:21:11;;;;;;;4.03;2.75;;;23.80;99.90;;;;;;5084822;28;45110;-57
2023/09/12 07:23:37;;;;;;;4.88;2.90;;;23.80;99.90;;;;;;5077451;27;45438;-57
2023/09/12 07:26:04;;;;;;;4.03;2.72;;;23.80;99.90;;;;;;5073606;28;47946;-57
2023/09/12 07:28:32;;;;;;;3.88;2.70;;;23.80;99.90;;;;;;5075075;28;45128;-57
2023/09/12 07:30:59;;;;;;;3.55;2.75;;;23.80;99.90;;;;;;5073060;28;44658;-57
2023/09/12 07:33:26;;;;;;;4.38;2.67;;;23.80;99.90;;;;;;5081333;28;45396;-57
2023/09/12 07:35:53;;;;;;;4.10;2.60;;;23.80;99.90;;;;;;5074981;28;45312;-57
2023/09/12 07:38:21;;;;;;;4.18;2.50;;;23.80;99.90;;;;;;5084141;28;45217;-57
2023/09/12 07:40:47;;;;;;;3.60;2.58;;;23.80;99.90;;;;;;5084615;28;44665;-57
2023/09/12 07:43:14;;;;;;;3.97;2.75;;;23.80;99.90;;;;;;5079480;28;45314;-57
2023/09/12 07:45:43;;;;;;;3.42;2.70;;;23.80;99.90;;;;;;5079100;28;45243;-57
2023/09/12 07:48:11;;;;;;;3.97;2.50;;;23.80;99.90;;;;;;5075782;28;45121;-57
2023/09/12 07:50:38;;;;;;;3.25;2.42;;;23.80;99.90;;;;;;5085723;27;45059;-57
2023/09/12 07:53:05;;;;;;;5.15;2.80;;;23.80;99.90;;;;;;5076281;28;44837;-57
2023/09/12 07:55:36;;;;;;;5.18;2.60;;;23.80;99.90;;;;;;5080557;28;45160;-57
2023/09/12 07:58:02;;;;;;;3.70;2.90;;;23.80;99.90;;;;;;5070679;28;45217;-57
2023/09/12 08:00:29;;;;;;;4.43;3.00;;;23.80;99.90;;;;;;5075924;28;45201;-57
2023/09/12 08:02:57;;;;;;;4.90;3.20;;;23.80;99.90;;;;;;5070198;28;44663;-57
2023/09/12 08:05:24;;;;;;;5.05;3.33;;;23.80;99.90;;;;;;5086165;28;47339;-57
2023/09/12 08:07:51;;;;;;;3.70;3.00;;;23.80;99.90;;;;;;5083634;27;45287;-57
2023/09/12 08:10:18;;;;;;;5.72;3.58;;;23.80;99.90;;;;;;5086618;28;45206;-57
2023/09/12 08:12:45;;;;;;;4.85;3.38;;;23.80;99.90;;;;;;5082463;28;45226;-57
2023/09/12 08:15:11;;;;;;;5.43;3.28;;;23.80;99.90;;;;;;5080448;27;45044;-57
2023/09/12 08:17:39;;;;;;;5.30;3.35;;;23.80;99.90;;;;;;5082230;28;45183;-57
2023/09/12 08:20:11;;;;;;;5.43;3.20;;;23.80;99.90;;;;;;5085495;28;45223;-57
2023/09/12 08:22:37;;;;;;;4.07;3.10;;;23.80;99.90;;;;;;5065298;28;45292;-57
2023/09/12 08:25:05;;;;;;;4.85;3.15;;;23.80;99.90;;;;;;5071751;28;46353;-57
2023/09/12 08:27:32;;;;;;;5.88;3.50;;;23.80;99.90;;;;;;5066068;28;45072;-57
2023/09/12 08:29:58;;;;;;;4.38;3.20;;;23.80;99.90;;;;;;5071278;28;45165;-57
2023/09/12 08:32:25;;;;;;;4.80;3.10;;;23.80;99.90;;;;;;5083179;28;45197;-57
2023/09/12 08:34:52;;;;;;;4.60;3.30;;;23.80;99.90;;;;;;5073664;28;46481;-56
2023/09/12 08:37:20;;;;;;;4.90;2.83;;;23.80;99.90;;;;;;5084182;28;45284;-57
2023/09/12 08:39:47;;;;;;;4.32;2.83;;;23.80;99.90;;;;;;5072592;28;45320;-57
2023/09/12 08:42:15;;;;;;;5.20;3.20;;;23.80;99.90;;;;;;5067210;28;44817;-57
2023/09/12 08:44:42;;;;;;;5.03;3.08;;;23.80;99.90;;;;;;5082815;28;45202;-58
2023/09/12 08:47:10;;;;;;;3.67;2.45;;;23.80;99.90;;;;;;5081228;28;45144;-58
2023/09/12 08:49:38;;;;;;;3.58;2.33;;;23.80;99.90;;;;;;5086111;28;44690;-58
2023/09/12 08:52:05;;;;;;;5.00;2.47;;;23.80;99.90;;;;;;5079738;28;45176;-58
2023/09/12 08:54:33;;;;;;;4.13;2.20;;;23.80;99.90;;;;;;5071349;28;45267;-58
2023/09/12 08:57:03;;;;;;;2.53;1.70;;;23.80;99.90;;;;;;5083340;27;45585;-58
2023/09/12 08:59:32;;;;;;;3.65;2.25;;;23.80;99.90;;;;;;5076150;28;45193;-58
2023/09/12 09:02:00;;;;;;;2.72;2.03;;;23.80;99.90;;;;;;5068201;28;44682;-58
2023/09/12 09:04:30;;;;;;;2.15;1.88;;;23.80;99.90;;;;;;5069162;28;44998;-58
2023/09/12 09:06:58;;;;;;;2.78;1.98;;;23.80;99.90;;;;;;5064281;28;45211;-57
2023/09/12 09:09:25;;;;;;;2.60;2.05;;;23.80;99.90;;;;;;5080473;28;44523;-57
2023/09/12 09:11:53;;;;;;;2.15;1.83;;;23.80;99.90;;;;;;5081070;28;44652;-57
2023/09/12 09:14:20;;;;;;;4.18;1.75;;;23.80;99.90;;;;;;5077121;28;45413;-57
2023/09/12 09:16:47;;;;;;;2.90;2.00;;;23.80;99.90;;;;;;5073291;27;45130;-57
2023/09/12 09:19:15;;;;;;;2.63;2.10;;;23.80;99.90;;;;;;5079667;28;45198;-57
2023/09/12 09:21:42;;;;;;;2.47;2.05;;;23.80;99.90;;;;;;5078914;28;45277;-57
2023/09/12 09:24:10;;;;;;;1.95;1.70;;;23.80;99.90;;;;;;5071860;28;46230;-57
2023/09/12 09:26:44;;;;;;;2.90;1.90;;;23.80;99.90;;;;;;5081276;28;45167;-57
2023/09/12 09:29:15;;;;;;;4.15;2.55;;;23.90;99.90;;;;;;5080090;28;45182;-57
2023/09/12 09:31:42;;;;;;;2.55;2.28;;;23.90;99.90;;;;;;5074389;28;45183;-57
2023/09/12 09:34:14;;;;;;;3.83;2.53;;;23.80;99.90;;;;;;5084468;28;46335;-57
2023/09/12 09:36:44;;;;;;;4.22;2.60;;;23.90;99.90;;;;;;5083540;28;45163;-57
2023/09/12 09:39:11;;;;;;;4.00;2.60;;;23.90;99.90;;;;;;5078527;27;45086;-57
2023/09/12 09:41:39;;;;;;;5.80;2.88;;;23.90;99.90;;;;;;5082258;28;44807;-57
2023/09/12 09:44:09;;;;;;;4.97;3.15;;;23.80;99.90;;;;;;5071781;27;45112;-57
2023/09/12 09:46:38;;;;;;;5.75;3.13;;;23.90;99.90;;;;;;5068050;28;45250;-57
2023/09/12 09:49:06;;;;;;;5.13;3.28;;;23.90;99.90;;;;;;5069042;28;45189;-57
2023/09/12 09:51:33;;;;;;;5.43;3.30;;;23.90;99.90;;;;;;5084322;27;45183;-57
2023/09/12 09:54:00;;;;;;;6.05;3.53;;;23.80;99.90;;;;;;5068926;28;46314;-57
2023/09/12 09:56:27;;;;;;;4.82;3.72;;;23.90;99.90;;;;;;5079364;28;45086;-57
2023/09/12 09:58:55;;;;;;;5.57;4.18;;;23.90;99.90;;;;;;5068484;28;45171;-57
2023/09/12 10:01:24;;;;;;;5.55;4.07;;;23.90;99.90;;;;;;5072806;28;45092;-57
2023/09/12 10:03:53;;;;;;;5.75;4.15;;;23.90;99.90;;;;;;5070535;28;46534;-57
2023/09/12 10:06:21;;;;;;;6.65;4.50;;;23.90;99.90;;;;;;5069596;28;45653;-57
2023/09/12 10:08:51;;;;;;;8.15;4.63;;;23.90;99.90;;;;;;5083301;27;45313;-57
2023/09/12 10:11:19;;;;;;;6.47;4.32;;;23.90;99.90;;;;;;5083296;28;44783;-57
2023/09/12 10:13:50;;;;;;;6.80;4.15;;;23.90;99.90;;;;;;5067514;27;45432;-57
2023/09/12 10:16:18;;;;;;;6.25;4.25;;;23.90;99.90;;;;;;5080232;27;45114;-57
2023/09/12 10:18:50;;;;;;;6.18;4.28;;;23.90;99.90;;;;;;5072381;27;45094;-57
2023/09/12 10:21:28;;;;;;;6.45;4.38;;;23.90;99.90;;;;;;5070474;28;45214;-57
2023/09/12 10:23:57;;;;;;;5.20;3.83;;;23.90;99.90;;;;;;5079511;28;47910;-57
2023/09/12 10:26:25;;;;;;;6.57;4.95;;;23.90;99.90;;;;;;5068637;28;45098;-57
2023/09/12 10:28:52;;;;;;;6.10;4.40;;;23.90;99.90;;;;;;5072922;28;45237;-57
2023/09/12 10:31:20;;;;;;;6.13;4.47;;;23.90;99.90;;;;;;5076723;27;45217;-57
2023/09/12 10:33:50;;;;;;;7.32;4.50;;;23.90;99.90;;;;;;5072498;28;47027;-57
2023/09/12 10:36:20;;;;;;;8.30;4.75;;;23.90;99.90;;;;;;5079592;27;45209;-57
2023/09/12 10:38:49;;;;;;;5.85;4.22;;;23.90;99.90;;;;;;5065473;28;45217;-57
2023/09/12 10:41:17;;;;;;;7.53;4.43;;;23.90;99.90;;;;;;5078324;28;45216;-57
2023/09/12 10:43:49;;;;;;;5.85;4.00;;;23.90;99.90;;;;;;5072808;28;47113;-57
2023/09/12 10:46:16;;;;;;;6.28;4.13;;;23.90;99.90;;;;;;5080936;28;45534;-57
2023/09/12 10:48:43;;;;;;;5.32;4.00;;;23.90;99.90;;;;;;5081370;28;45063;-57
2023/09/12 10:51:12;;;;;;;5.85;4.15;;;23.90;99.90;;;;;;5070787;28;45141;-57
2023/09/12 10:53:48;;;;;;;6.53;4.45;;;23.90;99.90;;;;;;5072488;28;45991;-57
2023/09/12 10:56:17;;;;;;;6.43;4.50;;;23.90;99.90;;;;;;5068876;28;45395;-57
2023/09/12 10:59:14;;;;;;;6.18;4.18;;;23.90;99.90;;;;;;5072103;28;44735;-57
2023/09/12 11:01:45;;;;;;;5.18;4.32;;;23.90;99.90;;;;;;5063162;27;45227;-57
2023/09/12 11:04:33;;;;;;;7.00;4.55;;;23.90;99.90;;;;;;5083187;28;46434;-57
2023/09/12 11:07:00;;;;;;;9.55;4.90;;;23.90;99.90;;;;;;5074291;28;45146;-57
2023/09/12 11:09:28;;;;;;;6.53;4.38;;;23.90;99.90;;;;;;5078170;28;44584;-57
2023/09/12 11:12:02;;;;;;;5.72;4.20;;;23.90;99.90;;;;;;5072631;28;45147;-57
2023/09/12 11:14:29;;;;;;;5.80;4.38;;;23.90;99.90;;;;;;5074375;27;45282;-57
2023/09/12 11:17:23;;;;;;;5.68;4.70;;;23.90;99.90;;;;;;5074081;28;45258;-57
2023/09/12 11:19:52;;;;;;;7.32;4.65;;;23.90;99.90;;;;;;5079077;28;45059;-57
2023/09/12 11:22:27;;;;;;;5.95;4.57;;;23.90;99.90;;;;;;5070472;28;44637;-57
2023/09/12 11:24:56;;;;;;;5.03;4.47;;;23.90;99.90;;;;;;5082011;28;46391;-57
2023/09/12 11:27:23;;;;;;;7.97;5.25;;;23.90;99.90;;;;;;5074877;28;45386;-57
2023/09/12 11:29:50;;;;;;;6.40;4.90;;;23.90;99.90;;;;;;5068679;28;45273;-56
2023/09/12 11:32:31;;;;;;;5.88;4.50;;;24.00;99.90;;;;;;5072837;28;45150;-56
2023/09/12 11:34:57;;;;;;;5.55;4.50;;;23.90;99.90;;;;;;5074268;28;46986;-57
2023/09/12 11:37:25;;;;;;;6.55;4.53;;;24.00;99.90;;;;;;5078739;28;45209;-58
2023/09/12 11:39:53;;;;;;;6.25;4.68;;;23.90;99.90;;;;;;5077557;27;45198;-58
2023/09/12 11:42:25;;;;;;;4.70;4.20;;;24.00;99.90;;;;;;5073262;28;45403;-58
2023/09/12 11:44:52;;;;;;;6.78;4.45;;;24.00;99.90;;;;;;5071760;28;48161;-57
2023/09/12 11:47:20;;;;;;;7.43;4.85;;;23.90;99.90;;;;;;5070514;28;45590;-57
2023/09/12 11:49:47;;;;;;;4.50;4.10;;;24.00;99.90;;;;;;5076423;28;45182;-57
2023/09/12 11:52:16;;;;;;;5.35;4.00;;;24.00;99.90;;;;;;5081186;28;45087;-58
2023/09/12 11:54:43;;;;;;;5.53;4.10;;;24.00;99.90;;;;;;5070512;27;48242;-58
2023/09/12 11:57:12;;;;;;;6.13;4.68;;;24.00;99.90;;;;;;5077249;28;46164;-58
2023/09/12 11:59:43;;;;;;;5.88;3.97;;;23.90;99.90;;;;;;5076586;28;44970;-58
2023/09/12 12:02:11;;;;;;;8.77;4.70;;;24.00;99.90;;;;;;5072762;28;45519;-58
2023/09/12 12:04:39;;;;;;;4.90;4.07;;;24.00;99.90;;;;;;5082026;28;46414;-58
2023/09/12 12:07:07;;;;;;;6.03;4.03;;;23.90;99.90;;;;;;5082050;28;45044;-58
2023/09/12 12:09:35;;;;;;;6.43;4.10;;;24.00;99.90;;;;;;5075815;28;44650;-58
2023/09/12 12:12:09;;;;;;;5.35;4.20;;;23.90;99.90;;;;;;5083684;28;45281;-58
2023/09/12 12:14:36;;;;;;;5.18;4.10;;;23.90;99.90;;;;;;5082026;27;47341;-58
2023/09/12 12:17:09;;;;;;;6.00;4.32;;;23.90;99.90;;;;;;5072594;28;45118;-58
2023/09/12 12:19:37;;;;;;;4.65;3.88;;;23.90;99.90;;;;;;5086267;28;45098;-58
2023/09/12 12:22:05;;;;;;;6.97;4.93;;;23.90;99.90;;;;;;5085915;27;45105;-58
2023/09/12 12:24:39;;;;;;;6.28;4.60;;;23.90;99.90;;;;;;5077264;28;48367;-58
2023/09/12 12:27:07;;;;;;;5.13;4.10;;;23.90;99.90;;;;;;5070671;28;45340;-58
2023/09/12 12:29:34;;;;;;;6.45;4.72;;;24.00;99.90;;;;;;5079527;28;45144;-58
2023/09/12 12:32:01;;;;;;;6.60;4.85;;;23.90;99.90;;;;;;5080834;27;45169;-58
2023/09/12 12:34:30;;;;;;;6.32;4.75;;;24.00;99.90;;;;;;5069229;28;45438;-58
2023/09/12 12:36:57;;;;;;;6.93;5.13;;;24.00;99.90;;;;;;5076749;28;45279;-58
2023/09/12 12:39:24;;;;;;;5.90;4.88;;;24.00;99.90;;;;;;5071001;28;45184;-58
2023/09/12 12:41:53;;;;;;;7.47;4.93;;;23.90;99.90;;;;;;5084262;27;45218;-58
2023/09/12 12:44:21;;;;;;;5.53;4.32;;;23.90;99.90;;;;;;5080225;28;45206;-58
2023/09/12 12:46:51;;;;;;;6.60;4.25;;;24.00;99.90;;;;;;5075646;28;45273;-58
2023/09/12 12:49:18;;;;;;;5.63;4.40;;;24.00;99.90;;;;;;5078110;28;45122;-58